Wayside, Texas
Current Conditions -  °F | °C
As of 11:53 AM on Sunday 25 Jan 2015 (Local Time) from KAMA Reporting Station
Clear Clear  
Wind Chill: 38°   Ceiling: Unl
Heat Index: 44°   Visibility: 10mi
Dew Point: 30°   Wind: 12mph
Humidity: 58%   Direction: 310°NW
Pressure: 30.22"   Gusts: NA
Location:  34.79°N, 101.55°W
Report Text: KAMA 251753Z 31010KT 10SM CLR 07/M01 A3022 RMK AO2 SLP234 T00671011 10067 20017 51010
Loading
Personal Weather Stations






























Interactive Weather Map New forecast layout! Learn more

10-Day Weather Forecast

Advertisements
Track Severe Weather on mobile